Time;durP1;ratioP1;P1;durP2;ratioP2;P2;SDS_P1;SDS_P2;PMS_P1;PMS_P2;Temp;Humidity;BMP_temperature;BMP_pressure;BME280_temperature;BME280_humidity;BME280_pressure;Samples;Min_cycle;Max_cycle;Signal;HPM_P1;HPM_P2
2022/12/04 00:00:37;;;;;;;;;37.50;31.00;;;;;4.13;70.30;100719.19;5081998;27;45374;-59
2022/12/04 00:03:03;;;;;;;;;28.75;27.50;;;;;4.09;70.07;100712.31;5082925;27;45463;-58
2022/12/04 00:05:28;;;;;;;;;28.50;22.50;;;;;4.09;70.08;100709.69;5096225;27;45501;-59
2022/12/04 00:07:53;;;;;;;;;26.75;23.00;;;;;4.13;69.93;100708.69;5087074;27;45461;-58
2022/12/04 00:10:19;;;;;;;;;25.00;22.25;;;;;4.13;69.60;100711.31;5076615;27;45374;-59
2022/12/04 00:12:44;;;;;;;;;27.50;23.50;;;;;4.17;70.03;100708.59;5058099;28;45189;-60
2022/12/04 00:15:10;;;;;;;;;23.75;23.75;;;;;4.07;69.55;100703.59;5085142;27;45527;-59
2022/12/04 00:17:35;;;;;;;;;34.50;29.75;;;;;4.12;69.75;100706.94;5093605;27;46079;-60
2022/12/04 00:20:00;;;;;;;;;44.00;31.00;;;;;4.13;70.41;100708.69;5096516;27;45177;-56
2022/12/04 00:22:26;;;;;;;;;37.75;28.50;;;;;4.11;69.46;100701.72;5094848;27;45935;-57
2022/12/04 00:24:51;;;;;;;;;38.25;28.00;;;;;4.03;70.61;100693.19;5077027;27;45517;-57
2022/12/04 00:27:17;;;;;;;;;33.50;27.25;;;;;4.08;69.79;100701.81;5096373;27;45452;-58
2022/12/04 00:29:42;;;;;;;;;39.50;24.50;;;;;4.06;70.00;100701.88;5091617;27;45351;-57
2022/12/04 00:32:07;;;;;;;;;28.75;22.25;;;;;4.06;69.63;100704.50;5076091;28;45296;-60
2022/12/04 00:34:33;;;;;;;;;25.50;18.25;;;;;4.07;70.49;100698.34;5076766;27;45405;-58
2022/12/04 00:36:58;;;;;;;;;25.50;21.00;;;;;4.14;69.68;100699.88;5075820;28;45355;-59
2022/12/04 00:39:24;;;;;;;;;30.75;24.75;;;;;4.15;69.27;100706.84;5077925;27;45284;-55
2022/12/04 00:41:49;;;;;;;;;19.75;19.75;;;;;4.11;70.01;100699.97;5061479;28;45367;-59
2022/12/04 00:44:14;;;;;;;;;22.50;18.25;;;;;4.10;70.27;100700.88;5089209;27;45421;-59
2022/12/04 00:46:40;;;;;;;;;22.50;22.00;;;;;4.14;70.83;100705.13;5100354;27;46901;-61
2022/12/04 00:49:05;;;;;;;;;31.75;27.50;;;;;4.11;69.87;100694.69;5083155;27;45528;-57
2022/12/04 00:51:30;;;;;;;;;20.25;18.25;;;;;4.07;70.57;100695.69;5062477;27;45461;-59
2022/12/04 00:53:56;;;;;;;;;32.75;23.75;;;;;4.07;70.21;100684.31;5082187;27;45628;-57
2022/12/04 00:56:24;;;;;;;;;29.50;27.25;;;;;4.08;70.26;100696.56;5099400;27;45391;-58
2022/12/04 00:58:58;;;;;;;;;37.50;28.00;;;;;4.05;70.63;100691.38;5080464;27;46429;-56
2022/12/04 01:01:24;;;;;;;;;32.25;24.50;;;;;4.06;70.74;100699.25;5072789;27;45414;-58
2022/12/04 01:03:50;;;;;;;;;33.00;24.50;;;;;4.04;71.01;100703.69;5079571;28;45687;-58
2022/12/04 01:06:19;;;;;;;;;34.25;27.00;;;;;3.98;70.26;100697.72;5078645;27;46236;-58
2022/12/04 01:08:44;;;;;;;;;27.75;23.25;;;;;4.05;70.20;100699.28;5078804;27;45400;-57
2022/12/04 01:11:10;;;;;;;;;31.50;24.50;;;;;3.99;70.13;100697.66;5084246;27;45354;-58
2022/12/04 01:13:35;;;;;;;;;33.50;27.25;;;;;4.05;70.30;100694.03;5099616;27;45298;-57
2022/12/04 01:16:00;;;;;;;;;33.75;23.50;;;;;4.06;70.72;100701.88;5099264;27;46075;-56
2022/12/04 01:18:26;;;;;;;;;30.75;28.00;;;;;4.07;70.20;100700.97;5098332;27;45491;-56
2022/12/04 01:20:51;;;;;;;;;27.75;22.00;;;;;4.01;70.31;100684.47;5099366;27;45362;-57
2022/12/04 01:23:18;;;;;;;;;28.75;25.25;;;;;3.98;70.36;100685.41;5081210;27;45614;-61
2022/12/04 01:25:54;;;;;;;;;34.00;28.00;;;;;4.05;70.41;100694.88;5088041;27;46375;-59
2022/12/04 01:28:19;;;;;;;;;28.00;24.75;;;;;4.07;70.74;100694.84;5079590;27;45213;-59
2022/12/04 01:30:54;;;;;;;;;30.25;28.75;;;;;4.04;70.09;100687.91;5081675;27;45225;-60
2022/12/04 01:33:19;;;;;;;;;28.50;25.00;;;;;4.04;70.59;100680.00;5099943;27;45358;-59
2022/12/04 01:35:52;;;;;;;;;31.00;25.75;;;;;4.13;70.49;100685.00;5098991;27;45246;-59
2022/12/04 01:38:17;;;;;;;;;30.25;29.00;;;;;4.19;70.52;100680.47;5090766;27;45754;-59
2022/12/04 01:40:43;;;;;;;;;26.75;22.75;;;;;4.13;70.38;100666.56;5078478;27;45920;-60
2022/12/04 01:43:14;;;;;;;;;33.50;23.50;;;;;4.17;69.82;100674.38;5080468;27;45605;-57
2022/12/04 01:45:44;;;;;;;;;27.25;21.75;;;;;4.01;70.57;100664.28;5081525;27;46302;-57
2022/12/04 01:48:22;;;;;;;;;30.75;25.25;;;;;4.12;70.57;100691.16;5096754;27;45260;-60
2022/12/04 01:50:51;;;;;;;;;37.50;27.50;;;;;4.15;70.48;100691.06;5100131;27;45417;-59
2022/12/04 01:53:18;;;;;;;;;34.00;25.00;;;;;4.17;70.15;100685.78;5099343;27;45453;-60
2022/12/04 01:55:45;;;;;;;;;27.00;26.00;;;;;4.14;70.30;100689.34;5070594;27;45630;-59
2022/12/04 01:58:11;;;;;;;;;32.00;27.00;;;;;4.14;70.43;100684.06;5078661;27;45376;-57
2022/12/04 02:00:36;;;;;;;;;34.75;27.00;;;;;4.14;70.41;100697.25;5066456;27;45460;-57
2022/12/04 02:03:03;;;;;;;;;30.75;26.75;;;;;4.15;70.67;100703.38;5073024;27;45625;-60
2022/12/04 02:05:28;;;;;;;;;26.75;24.00;;;;;4.12;70.30;100685.91;5093863;27;46003;-59
2022/12/04 02:07:58;;;;;;;;;32.25;29.25;;;;;4.11;70.27;100686.81;5100935;27;45370;-63
2022/12/04 02:10:36;;;;;;;;;25.25;20.00;;;;;4.12;70.91;100690.28;5080286;27;45294;-57
2022/12/04 02:13:27;;;;;;;;;40.25;32.25;;;;;4.10;70.58;100685.06;5106750;27;45188;-59
2022/12/04 02:16:07;;;;;;;;;39.50;33.00;;;;;4.13;69.99;100679.72;5119012;27;45562;-60
2022/12/04 02:18:44;;;;;;;;;28.25;16.50;;;;;4.13;70.86;100678.84;5106552;27;45453;-61
2022/12/04 02:21:28;;;;;;;;;41.25;27.25;;;;;4.11;70.17;100681.53;5100466;27;45375;-60
2022/12/04 02:24:03;;;;;;;;;33.50;28.50;;;;;4.12;71.03;100685.91;5119316;27;45310;-59
2022/12/04 02:26:40;;;;;;;;;28.75;22.00;;;;;4.14;70.82;100688.47;5119549;27;45446;-59
2022/12/04 02:29:08;;;;;;;;;38.25;30.00;;;;;4.17;70.64;100693.69;5110795;27;45468;-59
2022/12/04 02:31:45;;;;;;;;;35.00;26.00;;;;;4.20;69.83;100687.47;5090744;27;45398;-61
2022/12/04 02:34:20;;;;;;;;;38.75;31.25;;;;;4.23;70.78;100682.09;5097698;27;45326;-62
2022/12/04 02:36:56;;;;;;;;;32.00;30.25;;;;;4.27;70.54;100691.63;5112499;27;46430;-61
2022/12/04 02:39:28;;;;;;;;;39.25;34.00;;;;;4.26;70.81;100693.41;5089993;27;46240;-60
2022/12/04 02:42:01;;;;;;;;;42.50;30.75;;;;;4.19;69.86;100678.72;5096585;27;45363;-59
2022/12/04 02:44:34;;;;;;;;;32.75;26.75;;;;;4.27;69.51;100694.25;5097698;27;45285;-59
2022/12/04 02:47:04;;;;;;;;;24.25;24.25;;;;;4.28;69.70;100693.34;5098303;27;46204;-59
2022/12/04 02:49:42;;;;;;;;;47.00;30.00;;;;;4.23;70.08;100676.84;5109700;27;45270;-60
2022/12/04 02:52:13;;;;;;;;;38.50;28.00;;;;;4.25;70.49;100690.81;5078463;27;45496;-59
2022/12/04 02:54:44;;;;;;;;;25.75;23.25;;;;;4.24;70.92;100678.56;5086201;27;45533;-60
2022/12/04 02:57:20;;;;;;;;;34.00;30.00;;;;;4.23;70.37;100688.22;5098280;27;45726;-60
2022/12/04 02:59:49;;;;;;;;;42.25;30.75;;;;;4.21;70.73;100679.53;5097709;27;45330;-58
2022/12/04 03:02:22;;;;;;;;;32.50;29.00;;;;;4.16;70.70;100684.03;5100816;27;45184;-60
2022/12/04 03:04:50;;;;;;;;;36.00;28.25;;;;;4.19;70.38;100680.47;5115971;27;45251;-59
2022/12/04 03:07:23;;;;;;;;;37.75;29.00;;;;;4.24;70.32;100695.22;5108616;27;45314;-59
2022/12/04 03:09:57;;;;;;;;;32.25;28.00;;;;;4.25;70.48;100690.81;5076213;28;45454;-59
2022/12/04 03:12:51;;;;;;;;;49.50;38.25;;;;;4.19;70.86;100691.88;5103564;27;45395;-60
2022/12/04 03:15:31;;;;;;;;;12.00;10.00;;;;;4.18;71.10;100678.75;5094636;27;45385;-59
2022/12/04 03:18:10;;;;;;;;;41.25;30.75;;;;;4.17;70.92;100661.19;5097717;27;45550;-59
2022/12/04 03:20:38;;;;;;;;;38.00;29.25;;;;;4.31;70.04;100674.84;5097730;27;45463;-59
2022/12/04 03:23:19;;;;;;;;;32.25;28.75;;;;;4.28;70.65;100669.66;5104190;27;45375;-59
2022/12/04 03:26:00;;;;;;;;;35.50;31.50;;;;;4.31;70.11;100670.47;5087946;27;45537;-59
2022/12/04 03:28:32;;;;;;;;;31.50;16.25;;;;;4.28;70.68;100664.41;5097508;27;45276;-60
2022/12/04 03:31:05;;;;;;;;;32.50;27.25;;;;;4.28;70.55;100664.41;5093184;27;45267;-61
2022/12/04 03:33:40;;;;;;;;;36.25;34.00;;;;;4.28;70.19;100664.41;5080004;27;45453;-59
2022/12/04 03:36:15;;;;;;;;;42.50;35.75;;;;;4.26;70.76;100660.94;5084477;27;45504;-58
2022/12/04 03:39:08;;;;;;;;;33.25;27.00;;;;;4.33;70.52;100662.50;5095392;27;45810;-60
2022/12/04 03:41:56;;;;;;;;;34.75;29.25;;;;;4.36;70.02;100658.00;5077282;27;45362;-58
2022/12/04 03:44:28;;;;;;;;;35.50;31.25;;;;;4.38;69.77;100652.69;5077140;28;45257;-60
2022/12/04 03:46:59;;;;;;;;;39.75;28.50;;;;;4.44;70.50;100650.75;5087552;27;45616;-61
2022/12/04 03:49:47;;;;;;;;;30.00;26.75;;;;;4.46;69.68;100648.06;5100369;27;45402;-61
2022/12/04 03:52:44;;;;;;;;;38.50;29.50;;;;;4.40;70.31;100651.72;5099187;27;45283;-60
2022/12/04 03:55:29;;;;;;;;;39.25;34.50;;;;;4.36;70.22;100636.94;5094282;27;45358;-57
2022/12/04 03:58:01;;;;;;;;;44.00;37.75;;;;;4.41;69.95;100642.91;5078337;27;45442;-59
2022/12/04 04:00:29;;;;;;;;;36.00;33.75;;;;;4.43;70.54;100638.50;5090552;27;46295;-59
2022/12/04 04:03:06;;;;;;;;;43.75;38.25;;;;;4.42;69.83;100630.63;5096835;27;45279;-60
2022/12/04 04:05:35;;;;;;;;;38.25;34.00;;;;;4.40;70.01;100621.91;5094256;27;45366;-60
2022/12/04 04:10:51;;;;;;;;;40.25;32.00;;;;;4.36;69.94;100588.69;5089138;27;45334;-61
2022/12/04 04:24:32;;;;;;;;;34.50;30.75;;;;;4.36;69.40;100576.38;5096569;27;45334;-59
2022/12/04 04:26:58;;;;;;;;;36.75;35.00;;;;;4.30;69.96;100552.03;5095696;27;45442;-59
2022/12/04 04:29:24;;;;;;;;;31.25;29.50;;;;;4.42;69.50;100562.16;5095510;27;45508;-59
2022/12/04 04:32:27;;;;;;;;;36.00;28.50;;;;;4.43;69.81;100570.03;5092905;27;45357;-60
2022/12/04 04:35:10;;;;;;;;;45.25;35.50;;;;;4.40;69.03;100563.97;5086358;27;45543;-59
2022/12/04 04:37:44;;;;;;;;;30.75;30.00;;;;;4.42;69.22;100576.19;5061470;27;45284;-61
2022/12/04 04:40:18;;;;;;;;;36.25;31.00;;;;;4.46;69.70;100584.00;5096016;27;45358;-60
2022/12/04 04:42:57;;;;;;;;;35.00;31.75;;;;;4.44;68.97;100595.44;5095774;27;47473;-59
2022/12/04 04:45:30;;;;;;;;;32.00;32.00;;;;;4.41;69.19;100584.13;5096797;27;45436;-57
2022/12/04 04:48:01;;;;;;;;;32.75;29.75;;;;;4.44;69.70;100586.69;5096318;27;45434;-59
2022/12/04 04:50:31;;;;;;;;;44.00;29.75;;;;;4.45;69.00;100577.88;5094801;27;45395;-61
2022/12/04 04:53:03;;;;;;;;;45.75;37.25;;;;;4.44;69.58;100581.44;5096495;27;46530;-59
2022/12/04 04:55:33;;;;;;;;;41.75;30.75;;;;;4.47;69.37;100583.09;5096478;27;45978;-61
2022/12/04 04:58:06;;;;;;;;;37.50;32.25;;;;;4.35;69.29;100581.69;5086074;27;45324;-59
2022/12/04 05:00:32;;;;;;;;;37.00;30.00;;;;;4.29;70.17;100588.00;5090268;27;45618;-61
2022/12/04 05:02:57;;;;;;;;;28.00;23.00;;;;;4.28;69.55;100591.53;5082919;27;46209;-59
2022/12/04 05:05:23;;;;;;;;;34.00;27.75;;;;;4.29;69.75;100587.13;5096384;27;45337;-58
2022/12/04 05:07:48;;;;;;;;;36.00;29.75;;;;;4.31;69.76;100591.47;5078321;27;45506;-62
2022/12/04 05:10:14;;;;;;;;;41.50;32.00;;;;;4.35;70.06;100576.44;5097656;27;45422;-56
2022/12/04 05:12:39;;;;;;;;;33.25;26.00;;;;;4.29;69.28;100569.56;5097275;27;45874;-62
2022/12/04 05:15:05;;;;;;;;;31.75;28.25;;;;;4.41;70.12;100598.16;5085592;27;45691;-61
2022/12/04 05:17:30;;;;;;;;;35.25;27.25;;;;;4.34;69.42;100595.78;5075636;27;45317;-59
2022/12/04 05:19:56;;;;;;;;;36.50;28.00;;;;;4.36;69.83;100599.22;5096142;27;45611;-57
2022/12/04 05:22:41;;;;;;;;;41.00;37.25;;;;;4.42;69.24;100599.03;5093992;27;45551;-60
2022/12/04 05:25:07;;;;;;;;;29.25;24.75;;;;;4.42;69.25;100589.34;5096601;27;45342;-58
2022/12/04 05:27:33;;;;;;;;;49.75;34.00;;;;;4.37;69.11;100577.25;5100140;27;45275;-59
2022/12/04 05:29:58;;;;;;;;;40.00;34.25;;;;;4.32;69.83;100572.13;5098499;27;45183;-59
2022/12/04 05:32:25;;;;;;;;;35.75;32.00;;;;;4.44;69.99;100599.84;5098517;27;46209;-57
2022/12/04 05:34:52;;;;;;;;;37.75;36.25;;;;;4.47;69.50;100602.41;5099300;27;45188;-59
2022/12/04 05:37:18;;;;;;;;;41.00;35.25;;;;;4.51;69.95;100601.38;5085844;27;45548;-57
2022/12/04 05:39:44;;;;;;;;;35.50;31.25;;;;;4.52;69.12;100589.94;5081046;27;45351;-59
2022/12/04 05:42:09;;;;;;;;;43.50;33.00;;;;;4.45;69.65;100588.41;5082939;27;46079;-59
2022/12/04 05:44:35;;;;;;;;;37.50;34.25;;;;;4.46;69.44;100613.84;5078481;28;45377;-59
2022/12/04 05:47:00;;;;;;;;;36.00;31.50;;;;;4.47;69.39;100626.09;5078951;28;45525;-59
2022/12/04 05:49:28;;;;;;;;;33.75;29.00;;;;;4.49;69.76;100626.03;5078523;27;45525;-56
2022/12/04 05:51:54;;;;;;;;;51.00;37.50;;;;;4.51;69.09;100625.09;5075235;27;47167;-63
2022/12/04 05:54:19;;;;;;;;;42.75;36.25;;;;;4.53;69.57;100631.16;5082627;27;45426;-58
2022/12/04 05:56:45;;;;;;;;;45.25;35.00;;;;;4.54;69.19;100638.16;5081682;27;45635;-59
2022/12/04 05:59:10;;;;;;;;;43.25;31.75;;;;;4.55;69.42;100641.66;5082823;27;45224;-57
2022/12/04 06:01:35;;;;;;;;;40.75;37.00;;;;;4.55;69.80;100637.25;5077233;27;45262;-59
2022/12/04 06:04:01;;;;;;;;;46.25;33.25;;;;;4.56;69.24;100641.63;5078303;28;45330;-58
2022/12/04 06:06:27;;;;;;;;;35.00;30.50;;;;;4.60;69.88;100645.03;5078444;28;45307;-58
2022/12/04 06:08:55;;;;;;;;;32.50;31.00;;;;;4.61;70.03;100650.22;5072001;27;45588;-60
2022/12/04 06:11:24;;;;;;;;;38.25;29.75;;;;;4.61;69.91;100649.38;5097229;27;46211;-60
2022/12/04 06:13:50;;;;;;;;;42.00;30.75;;;;;4.56;68.83;100641.63;5098038;27;45370;-57
2022/12/04 06:16:18;;;;;;;;;46.00;33.75;;;;;4.52;68.90;100642.59;5097411;27;45484;-59
2022/12/04 06:18:47;;;;;;;;;37.25;35.00;;;;;4.52;69.54;100637.34;5079314;27;45395;-57
2022/12/04 06:21:13;;;;;;;;;25.75;21.50;;;;;4.58;69.60;100626.63;5094329;27;46143;-59
2022/12/04 06:23:38;;;;;;;;;46.50;35.00;;;;;4.57;68.94;100634.59;5119382;27;45326;-59
2022/12/04 06:26:06;;;;;;;;;44.00;37.75;;;;;4.52;69.20;100639.97;5119234;27;45171;-63
2022/12/04 06:28:31;;;;;;;;;46.00;39.50;;;;;4.56;69.88;100639.00;5119165;27;45580;-59
2022/12/04 06:31:02;;;;;;;;;34.75;31.25;;;;;4.58;69.00;100629.25;5106637;27;46046;-59
2022/12/04 06:33:27;;;;;;;;;33.75;24.25;;;;;4.51;69.38;100622.44;5071936;27;45481;-58
2022/12/04 06:36:01;;;;;;;;;35.25;29.25;;;;;4.44;69.10;100620.94;5089992;27;46169;-57
2022/12/04 06:38:27;;;;;;;;;44.25;34.50;;;;;4.50;69.91;100623.34;5097659;27;45486;-58
2022/12/04 06:40:52;;;;;;;;;39.75;34.25;;;;;4.57;70.11;100632.81;5098561;27;45776;-58
2022/12/04 06:43:18;;;;;;;;;40.00;32.00;;;;;4.60;69.38;100640.63;5098947;27;45323;-60
2022/12/04 06:45:43;;;;;;;;;30.00;26.25;;;;;4.64;69.24;100636.97;5099895;27;45263;-61
2022/12/04 06:48:08;;;;;;;;;39.75;32.00;;;;;4.63;69.66;100650.19;5065304;28;45655;-57
2022/12/04 06:50:34;;;;;;;;;41.50;30.75;;;;;4.65;69.60;100653.63;5097080;27;45179;-58
2022/12/04 06:52:59;;;;;;;;;46.50;34.50;;;;;4.64;69.61;100658.03;5078809;27;45318;-57
2022/12/04 06:55:25;;;;;;;;;34.75;27.50;;;;;4.66;69.32;100666.75;5076805;28;45249;-58
2022/12/04 06:57:50;;;;;;;;;33.00;27.25;;;;;4.71;69.04;100653.47;5078713;28;45560;-61
2022/12/04 07:00:16;;;;;;;;;43.25;32.50;;;;;4.69;68.82;100650.00;5076577;28;45310;-57
2022/12/04 07:02:41;;;;;;;;;41.75;34.25;;;;;4.69;69.43;100656.16;5091203;27;45396;-64
2022/12/04 07:05:07;;;;;;;;;40.75;34.00;;;;;4.69;69.26;100655.28;5079972;27;45313;-57
2022/12/04 07:07:32;;;;;;;;;36.00;34.75;;;;;4.66;69.16;100650.94;5096496;27;46099;-57
2022/12/04 07:09:57;;;;;;;;;41.00;31.25;;;;;4.63;69.62;100648.41;5085096;27;46003;-59
2022/12/04 07:12:23;;;;;;;;;32.50;30.00;;;;;4.71;68.92;100669.25;5077279;28;45367;-59
2022/12/04 07:14:48;;;;;;;;;42.75;33.25;;;;;4.72;69.48;100663.94;5089314;27;45391;-58
2022/12/04 07:17:13;;;;;;;;;37.00;32.25;;;;;4.69;69.64;100668.44;5098143;27;45430;-56
2022/12/04 07:19:39;;;;;;;;;41.75;34.25;;;;;4.70;69.28;100663.13;5078731;27;45346;-57
2022/12/04 07:22:05;;;;;;;;;46.25;26.50;;;;;4.69;69.38;100660.56;5086552;27;45523;-58
2022/12/04 07:24:30;;;;;;;;;33.00;31.75;;;;;4.70;68.96;100651.72;5091301;27;45677;-60
2022/12/04 07:26:56;;;;;;;;;33.25;24.50;;;;;4.76;69.90;100655.94;5081307;27;45891;-56
2022/12/04 07:29:21;;;;;;;;;38.50;26.50;;;;;4.73;69.14;100657.75;5088180;27;45389;-57
2022/12/04 07:31:46;;;;;;;;;33.50;28.75;;;;;4.73;69.24;100656.91;5088536;27;45772;-56
2022/12/04 07:34:12;;;;;;;;;50.75;35.25;;;;;4.72;69.47;100663.09;5077959;27;45417;-56
2022/12/04 07:36:39;;;;;;;;;35.50;34.50;;;;;4.79;69.36;100672.50;5096228;27;45403;-57
2022/12/04 07:39:04;;;;;;;;;34.25;31.00;;;;;4.81;69.59;100669.81;5095752;27;45377;-57
2022/12/04 07:41:29;;;;;;;;;38.75;33.50;;;;;4.82;69.72;100658.38;5084454;27;45233;-56
2022/12/04 07:43:55;;;;;;;;;37.50;34.25;;;;;4.77;69.18;100661.16;5095658;27;45402;-57
2022/12/04 07:46:23;;;;;;;;;45.50;30.75;;;;;4.85;68.81;100650.38;5099553;27;45322;-56
2022/12/04 07:48:48;;;;;;;;;45.25;33.75;;;;;4.89;68.94;100658.13;5093598;27;46313;-58
2022/12/04 07:51:17;;;;;;;;;36.75;32.75;;;;;4.91;68.69;100656.31;5100572;27;45350;-58
2022/12/04 07:53:43;;;;;;;;;36.75;31.00;;;;;4.88;69.50;100653.78;5111266;27;45230;-58
2022/12/04 07:56:11;;;;;;;;;26.50;22.50;;;;;4.95;69.60;100657.09;5100117;27;45683;-59
2022/12/04 07:58:37;;;;;;;;;33.75;31.00;;;;;4.95;69.05;100649.19;5088181;27;46244;-68
2022/12/04 08:01:10;;;;;;;;;45.25;37.00;;;;;4.95;69.36;100651.81;5100072;27;45518;-59
2022/12/04 08:03:36;;;;;;;;;41.75;30.75;;;;;4.99;69.11;100643.75;5097277;27;45433;-57
2022/12/04 08:06:03;;;;;;;;;39.75;36.75;;;;;5.00;68.55;100639.34;5081584;27;45528;-56
2022/12/04 08:08:28;;;;;;;;;62.25;35.50;;;;;5.03;69.23;100633.97;5089217;27;45504;-57
2022/12/04 08:10:54;;;;;;;;;38.25;34.75;;;;;5.04;68.59;100646.25;5094677;27;45319;-57
2022/12/04 08:13:19;;;;;;;;;35.50;29.50;;;;;5.08;69.13;100647.88;5095307;27;45463;-57
2022/12/04 08:15:45;;;;;;;;;41.50;33.50;;;;;5.14;68.83;100652.09;5097273;27;45480;-59
2022/12/04 08:18:10;;;;;;;;;31.75;25.00;;;;;5.18;69.21;100643.16;5093157;27;45645;-58
2022/12/04 08:20:35;;;;;;;;;32.75;30.50;;;;;5.17;68.14;100628.25;5087324;27;58832;-61
2022/12/04 08:23:01;;;;;;;;;38.25;32.00;;;;;5.24;68.45;100646.47;5089208;27;45283;-60
2022/12/04 08:25:27;;;;;;;;;47.00;39.00;;;;;5.25;68.66;100648.19;5074599;27;45654;-61
2022/12/04 08:27:52;;;;;;;;;37.25;32.75;;;;;5.28;67.93;100645.44;5085196;27;45462;-61
2022/12/04 08:30:18;;;;;;;;;34.00;26.75;;;;;5.27;68.47;100642.84;5076795;27;45564;-59
2022/12/04 08:32:43;;;;;;;;;42.50;33.50;;;;;5.28;68.77;100649.84;5084896;27;45545;-58
2022/12/04 08:35:09;;;;;;;;;33.75;28.50;;;;;5.29;67.53;100652.44;5076146;27;45227;-57
2022/12/04 08:37:34;;;;;;;;;36.00;32.50;;;;;5.29;67.88;100647.16;5089437;27;46098;-59
2022/12/04 08:39:59;;;;;;;;;49.50;39.00;;;;;5.35;67.90;100650.53;5086537;27;45358;-61
2022/12/04 08:42:25;;;;;;;;;43.25;35.00;;;;;5.32;67.96;100644.41;5078820;27;47264;-60
2022/12/04 08:44:50;;;;;;;;;43.25;36.50;;;;;5.39;67.88;100655.63;5076612;27;45224;-60
2022/12/04 08:47:16;;;;;;;;;36.00;30.00;;;;;5.43;68.23;100656.38;5069249;27;46468;-59
2022/12/04 08:49:41;;;;;;;;;41.25;38.25;;;;;5.50;67.23;100658.78;5073222;27;45366;-59
2022/12/04 08:52:07;;;;;;;;;31.00;19.25;;;;;5.49;67.43;100650.91;5095898;27;45456;-59
2022/12/04 08:54:32;;;;;;;;;43.25;29.50;;;;;5.55;67.42;100659.47;5084356;27;45409;-58
2022/12/04 08:56:57;;;;;;;;;55.75;39.25;;;;;5.56;66.41;100669.09;5081706;27;47715;-57
2022/12/04 08:59:23;;;;;;;;;48.25;34.00;;;;;5.57;67.31;100677.88;5078098;27;45577;-56
2022/12/04 09:01:50;;;;;;;;;38.00;29.75;;;;;5.57;67.12;100672.59;5087034;27;45326;-58
2022/12/04 09:04:16;;;;;;;;;37.50;34.75;;;;;5.61;66.44;100676.88;5084093;27;45437;-57
2022/12/04 09:06:41;;;;;;;;;44.00;39.50;;;;;5.48;66.79;100667.66;5088621;27;46385;-57
2022/12/04 09:09:07;;;;;;;;;40.75;30.75;;;;;5.47;66.97;100668.53;5097111;27;45337;-58
2022/12/04 09:11:32;;;;;;;;;43.50;34.75;;;;;5.53;66.97;100663.94;5092915;27;45520;-58
2022/12/04 09:13:59;;;;;;;;;43.50;36.25;;;;;5.55;66.72;100662.09;5098161;27;45560;-62
2022/12/04 09:16:25;;;;;;;;;45.75;36.75;;;;;5.53;66.86;100655.16;5072872;27;45904;-60
2022/12/04 09:18:50;;;;;;;;;41.75;34.00;;;;;5.62;66.49;100668.91;5107118;27;45409;-60
2022/12/04 09:21:19;;;;;;;;;35.25;33.25;;;;;5.61;67.12;100669.81;5089675;27;45475;-65
2022/12/04 09:23:45;;;;;;;;;45.50;33.75;;;;;5.62;67.01;100670.69;5092505;27;45607;-62
2022/12/04 09:26:24;;;;;;;;;38.75;34.50;;;;;5.57;67.08;100664.69;5098142;27;46466;-64
2022/12/04 09:28:50;;;;;;;;;44.00;35.75;;;;;5.56;66.60;100668.25;5092765;27;45479;-62
2022/12/04 09:31:17;;;;;;;;;27.50;23.25;;;;;5.54;66.84;100660.38;5095086;27;45432;-63
2022/12/04 09:33:43;;;;;;;;;36.75;30.50;;;;;5.58;65.96;100658.50;5094613;27;46219;-63
2022/12/04 09:36:14;;;;;;;;;50.25;37.00;;;;;5.65;66.90;100657.38;5091083;27;46201;-60
2022/12/04 09:38:41;;;;;;;;;47.50;41.00;;;;;5.71;66.51;100649.22;5103641;27;45325;-62
2022/12/04 09:41:18;;;;;;;;;40.75;35.00;;;;;5.75;66.44;100655.28;5115370;27;45325;-62
2022/12/04 09:44:26;;;;;;;;;47.00;34.50;;;;;5.78;66.35;100665.72;5068604;27;45874;-60
2022/12/04 09:47:01;;;;;;;;;40.25;30.00;;;;;5.83;65.97;100669.91;5038396;28;47906;-62
2022/12/04 09:49:35;;;;;;;;;41.50;40.00;;;;;5.81;67.05;100671.75;5078381;28;45426;-62
2022/12/04 09:52:08;;;;;;;;;49.75;39.25;;;;;5.72;66.23;100671.19;5081083;27;45430;-62
2022/12/04 09:54:39;;;;;;;;;43.50;37.25;;;;;5.75;65.88;100665.84;5078697;27;45428;-65
2022/12/04 09:57:32;;;;;;;;;45.50;38.00;;;;;5.74;66.61;100670.25;5094871;27;45571;-63
2022/12/04 09:59:58;;;;;;;;;47.50;37.25;;;;;5.82;66.30;100670.84;5080744;27;45337;-62
2022/12/04 10:02:33;;;;;;;;;47.25;36.75;;;;;5.79;66.23;100663.03;5096062;27;45403;-59
2022/12/04 10:04:59;;;;;;;;;39.00;36.50;;;;;5.73;67.14;100668.53;5099614;27;45259;-63
2022/12/04 10:07:41;;;;;;;;;41.00;39.25;;;;;5.75;66.11;100661.44;5099117;27;46162;-59
2022/12/04 10:10:29;;;;;;;;;40.75;35.25;;;;;5.75;66.02;100658.78;5095683;27;45465;-61
2022/12/04 10:13:18;;;;;;;;;48.25;37.00;;;;;5.81;67.00;100666.47;5088591;27;45462;-61
2022/12/04 10:15:56;;;;;;;;;37.50;37.50;;;;;5.91;66.87;100662.63;5097908;27;45503;-60
2022/12/04 10:18:33;;;;;;;;;47.50;40.75;;;;;5.91;66.36;100656.50;5099018;27;46034;-62
2022/12/04 10:21:14;;;;;;;;;40.25;37.75;;;;;5.95;66.92;100651.97;5098282;27;45336;-62
2022/12/04 10:24:01;;;;;;;;;42.00;37.25;;;;;5.95;66.74;100651.97;5094454;27;45421;-61
2022/12/04 10:26:33;;;;;;;;;59.75;44.75;;;;;5.86;66.63;100659.28;5082366;27;45788;-59
2022/12/04 10:29:02;;;;;;;;;49.75;39.50;;;;;5.86;66.45;100651.34;5115112;27;46318;-61
2022/12/04 10:31:30;;;;;;;;;42.25;34.50;;;;;5.87;66.21;100655.72;5088796;27;46241;-62
2022/12/04 10:34:18;;;;;;;;;46.50;39.50;;;;;5.80;66.67;100635.72;5094809;27;45315;-59
2022/12/04 10:36:50;;;;;;;;;38.50;31.50;;;;;5.87;66.29;100633.75;5096207;27;45396;-59
2022/12/04 10:39:24;;;;;;;;;56.00;42.00;;;;;5.97;66.53;100639.56;5075448;27;46184;-61
2022/12/04 10:42:00;;;;;;;;;47.25;39.00;;;;;5.98;66.37;100643.91;5060498;27;45280;-61
2022/12/04 10:44:26;;;;;;;;;49.00;42.50;;;;;6.00;66.74;100639.47;5091998;27;45247;-67
2022/12/04 10:46:59;;;;;;;;;44.00;32.25;;;;;6.05;65.67;100633.09;5093841;27;45280;-67
2022/12/04 10:49:26;;;;;;;;;36.25;27.50;;;;;6.11;65.86;100637.28;5079678;27;45273;-62
2022/12/04 10:51:53;;;;;;;;;45.25;36.25;;;;;6.10;66.44;100636.41;5097681;27;45345;-61
2022/12/04 10:54:25;;;;;;;;;49.75;38.75;;;;;6.11;66.32;100640.78;5068744;27;45428;-61
2022/12/04 10:56:55;;;;;;;;;44.00;40.25;;;;;6.09;66.20;100653.19;5090624;27;45628;-69
2022/12/04 10:59:21;;;;;;;;;46.00;36.00;;;;;6.12;65.81;100655.72;5095511;27;45922;-63
2022/12/04 11:01:49;;;;;;;;;42.75;40.25;;;;;6.11;66.04;100658.41;5108215;27;45362;-63
2022/12/04 11:04:29;;;;;;;;;42.00;37.50;;;;;6.14;66.20;100647.75;5100134;27;45437;-62
2022/12/04 11:07:09;;;;;;;;;43.50;37.50;;;;;6.18;65.66;100644.06;5098087;27;45290;-62
2022/12/04 11:09:35;;;;;;;;;46.25;41.00;;;;;6.12;66.26;100636.34;5069206;27;45452;-59
2022/12/04 11:12:20;;;;;;;;;54.75;44.00;;;;;6.12;66.47;100634.59;5117503;27;45224;-58
2022/12/04 11:14:45;;;;;;;;;46.25;39.50;;;;;6.09;66.76;100633.84;5118499;27;45262;-58
2022/12/04 11:17:18;;;;;;;;;46.00;40.50;;;;;6.17;66.13;100634.41;5100048;27;45311;-59
2022/12/04 11:19:46;;;;;;;;;51.25;41.75;;;;;6.20;65.96;100631.66;5094382;27;46243;-59
2022/12/04 11:22:14;;;;;;;;;50.25;40.00;;;;;6.10;66.19;100619.72;5079963;27;45416;-60
2022/12/04 11:24:41;;;;;;;;;40.00;23.00;;;;;6.13;65.66;100624.91;5076874;27;45821;-65
2022/12/04 11:27:17;;;;;;;;;60.00;43.75;;;;;6.17;66.16;100627.34;5106881;27;45575;-65
2022/12/04 11:29:45;;;;;;;;;46.50;34.75;;;;;6.20;66.85;100640.44;5106467;27;45523;-63
2022/12/04 11:32:24;;;;;;;;;43.75;38.00;;;;;6.21;65.93;100634.25;5097369;27;45370;-63
2022/12/04 11:34:55;;;;;;;;;43.50;31.25;;;;;6.21;66.00;100628.09;5077379;27;45418;-65
2022/12/04 11:37:25;;;;;;;;;44.25;37.75;;;;;6.30;66.06;100621.63;5068054;27;45511;-65
2022/12/04 11:39:52;;;;;;;;;40.25;33.25;;;;;6.20;66.05;100621.97;5084235;27;45414;-61
2022/12/04 11:42:28;;;;;;;;;54.25;41.50;;;;;6.21;66.48;100613.13;5093553;27;45595;-70